Logan Peak - 24 Hour Table
Date & TimeSolar
Radiation
(W/m²)
Wind
Speed
(mph)
Wind
Direction
(degrees)
Air
Temperature
(°F)
Relative
Humidity
(%)
Barometeric
Pressure
(inHg)
Max
Wind
Speed
(mph)
2021/12/01 14:00 438 17.4 261 35.8 82 30.06 21.7
2021/12/01 13:00 458 16.1 277 33.6 89 30.06 23.5
2021/12/01 12:00 386 15.6 286 31.6 95 30.07 21.5
2021/12/01 11:00 343 16.2 290 31.1 97 30.08 22.4
2021/12/01 10:00 253 17.4 303 34.9 96 30.07 22.6
2021/12/01 09:00 108 19.0 302 31.7 100 30.06 23.9
2021/12/01 08:00 14 21.9 303 31.2 100 30.07 28.6
2021/12/01 07:00 0 21.6 302 29.9 100 30.05 32.4
2021/12/01 06:00 0 25.7 301 28.6 100 30.04 37.1
2021/12/01 05:00 0 25.0 298 28.6 100 30.04 32.4
2021/12/01 04:00 0 23.9 297 28.7 90 30.06 30.6
2021/12/01 03:00 0 23.3 297 29.1 79 30.07 29.5
2021/12/01 02:00 0 24.0 296 28.9 77 30.04 34.4
2021/12/01 01:00 0 26.5 279 28.4 71 30.05 34.7
2021/12/01 00:00 0 25.6 279 29.5 67 30.06 31.8
2021/11/30 23:00 0 25.5 278 29.6 65 30.02 32.4
2021/11/30 22:00 0 25.3 279 29.3 61 30.02 32.2
2021/11/30 21:00 0 25.7 279 29.3 55 30.02 34.2
2021/11/30 20:00 0 23.4 287 28.9 56 30.03 35.8
2021/11/30 19:00 0 25.5 299 29.1 48 30.03 35.8
2021/11/30 18:00 1 26.1 300 28.7 42 29.99 39.1
2021/11/30 17:00 42 22.3 285 28.0 30 29.99 31.5
2021/11/30 16:00 147 22.1 279 28.5 29 29.98 31.3
2021/11/30 15:00 241 21.3 287 28.7 33 29.98 37.1